Time;durP1;ratioP1;P1;durP2;ratioP2;P2;SDS_P1;SDS_P2;PMS_P1;PMS_P2;Temp;Humidity;BMP_temperature;BMP_pressure;BME280_temperature;BME280_humidity;BME280_pressure;Samples;Min_cycle;Max_cycle;Signal;HPM_P1;HPM_P2
2022/03/21 00:01:10;;;;;;;3.50;1.20;;;;;;;13.49;79.19;100223.53;5019135;28;20448;-69
2022/03/21 00:03:37;;;;;;;4.60;1.23;;;;;;;13.47;79.17;100225.00;5014538;28;20096;-68
2022/03/21 00:06:05;;;;;;;2.20;0.60;;;;;;;13.44;79.18;100220.84;5017855;28;20065;-69
2022/03/21 00:08:32;;;;;;;34.97;32.87;;;;;;;13.47;79.08;100231.44;5023330;28;20548;-68
2022/03/21 00:10:59;;;;;;;38.07;35.57;;;;;;;13.37;78.87;100192.34;5021703;28;20171;-68
2022/03/21 00:13:26;;;;;;;1.77;1.10;;;;;;;13.49;78.89;100203.06;5019484;28;20045;-68
2022/03/21 00:15:54;;;;;;;6.70;1.67;;;;;;;13.60;78.30;100200.91;5023140;28;20148;-68
2022/03/21 00:18:23;;;;;;;49.57;46.97;;;;;;;13.74;78.18;100213.81;5017816;28;20049;-68
2022/03/21 00:20:54;;;;;;;4.25;1.58;;;;;;;13.80;77.83;100220.16;5025929;28;20049;-68
2022/03/21 00:23:23;;;;;;;2.20;1.20;;;;;;;13.80;77.65;100205.28;5025856;28;20084;-68
2022/03/21 00:25:51;;;;;;;3.37;1.20;;;;;;;13.84;77.67;100221.19;5019717;28;20053;-70
2022/03/21 00:28:18;;;;;;;3.53;1.27;;;;;;;13.83;77.66;100216.72;5021284;28;20053;-70
2022/03/21 00:30:46;;;;;;;9.50;0.87;;;;;;;13.80;77.84;100219.31;5026881;28;20076;-68
2022/03/21 00:33:13;;;;;;;2.97;1.47;;;;;;;13.85;77.94;100222.06;5018939;28;20044;-69
2022/03/21 00:35:46;;;;;;;3.23;1.13;;;;;;;13.79;77.83;100203.63;5018213;28;20053;-69
2022/03/21 00:38:14;;;;;;;1.70;1.07;;;;;;;13.86;77.84;100213.31;5016468;28;20133;-70
2022/03/21 00:40:45;;;;;;;1.97;1.20;;;;;;;13.81;77.60;100202.19;5021766;28;20136;-71
2022/03/21 00:43:15;;;;;;;5.63;1.13;;;;;;;14.03;77.38;100214.66;5020814;28;20060;-71
2022/03/21 00:45:42;;;;;;;3.33;0.98;;;;;;;14.02;77.13;100210.19;5021376;28;20091;-72
2022/03/21 00:48:08;;;;;;;1.97;0.83;;;;;;;13.97;76.98;100177.44;5021117;28;20609;-70
2022/03/21 00:50:35;;;;;;;4.30;1.23;;;;;;;13.90;76.79;100168.59;5038170;28;20607;-69
2022/03/21 00:53:02;;;;;;;2.47;1.47;;;;;;;14.17;76.83;100215.50;5022370;28;20051;-70
2022/03/21 00:55:29;;;;;;;2.00;0.90;;;;;;;14.17;76.70;100213.50;5018345;28;20081;-69
2022/03/21 00:57:58;;;;;;;1.20;0.83;;;;;;;14.15;76.89;100206.53;5021862;28;20046;-68
2022/03/21 01:00:28;;;;;;;1.90;1.00;;;;;;;14.26;76.49;100232.47;5021913;28;20104;-69
2022/03/21 01:02:57;;;;;;;4.22;1.10;;;;;;;14.24;76.25;100232.75;5021234;28;20049;-69
2022/03/21 01:05:24;;;;;;;5.00;1.15;;;;;;;14.12;76.06;100207.16;5022287;28;20054;-68
2022/03/21 01:07:52;;;;;;;0.77;0.63;;;;;;;14.17;75.92;100207.91;5025212;28;20050;-71
2022/03/21 01:10:21;;;;;;;3.40;0.97;;;;;;;14.23;75.85;100220.69;5023888;28;20124;-71
2022/03/21 01:12:49;;;;;;;1.83;1.47;;;;;;;14.26;75.82;100216.44;5021270;28;20050;-70
2022/03/21 01:15:17;;;;;;;4.33;1.27;;;;;;;14.27;75.79;100197.59;5024106;28;20192;-71
2022/03/21 01:17:45;;;;;;;2.00;1.20;;;;;;;14.18;75.73;100170.22;5028174;28;20137;-69
2022/03/21 01:20:15;;;;;;;4.90;1.40;;;;;;;14.31;75.90;100181.78;5026088;28;20104;-70
2022/03/21 01:22:43;;;;;;;1.63;1.20;;;;;;;14.38;76.01;100194.25;5020126;28;20089;-70
2022/03/21 01:25:11;;;;;;;3.20;1.30;;;;;;;14.40;76.00;100185.50;5023469;28;20072;-70
2022/03/21 01:27:40;;;;;;;3.37;1.33;;;;;;;14.40;76.13;100186.34;5026466;28;20123;-69
2022/03/21 01:30:10;;;;;;;2.73;1.23;;;;;;;14.42;76.18;100192.44;5019020;28;20137;-69
2022/03/21 01:32:38;;;;;;;2.17;1.20;;;;;;;14.43;76.11;100191.31;5027962;28;20456;-70
2022/03/21 01:35:06;;;;;;;3.23;1.23;;;;;;;14.42;76.25;100183.19;5019313;28;20600;-69
2022/03/21 01:37:33;;;;;;;2.27;0.97;;;;;;;14.36;76.03;100157.22;5024372;28;20049;-68
2022/03/21 01:40:00;;;;;;;3.27;1.83;;;;;;;14.38;76.21;100149.28;5031921;28;20073;-70
2022/03/21 01:42:27;;;;;;;2.30;1.50;;;;;;;14.52;76.38;100187.78;5032074;28;20045;-70
2022/03/21 01:44:55;;;;;;;1.97;0.90;;;;;;;14.44;76.07;100155.63;5021719;28;20078;-70
2022/03/21 01:47:24;;;;;;;3.10;1.57;;;;;;;14.59;76.19;100176.94;5025900;28;20470;-70
2022/03/21 01:49:51;;;;;;;2.33;1.37;;;;;;;14.53;76.24;100178.22;5042852;28;20061;-70
2022/03/21 01:52:20;;;;;;;2.10;1.10;;;;;;;14.68;75.92;100186.28;5022783;28;20473;-70
2022/03/21 01:57:34;;;;;;;3.33;1.63;;;;;;;14.94;76.08;100183.72;5026459;28;20136;-70
2022/03/21 02:00:03;;;;;;;4.60;2.20;;;;;;;15.02;75.98;100194.19;5021837;28;20061;-70
2022/03/21 02:02:30;;;;;;;6.70;2.57;;;;;;;14.91;75.80;100165.50;5023970;28;20085;-71
2022/03/21 02:04:57;;;;;;;5.17;2.20;;;;;;;15.03;75.81;100172.53;5023313;28;20452;-70
2022/03/21 02:07:25;;;;;;;3.30;2.03;;;;;;;15.16;75.73;100175.25;5017810;28;20581;-67
2022/03/21 02:09:53;;;;;;;4.07;2.47;;;;;;;15.18;75.63;100155.25;5027402;28;20073;-68
2022/03/21 02:12:21;;;;;;;4.97;3.23;;;;;;;15.23;75.54;100160.75;5025652;28;20132;-67
2022/03/21 02:14:48;;;;;;;6.17;2.17;;;;;;;15.26;75.45;100150.84;5024947;28;20476;-70
2022/03/21 02:17:19;;;;;;;2.57;1.87;;;;;;;15.32;75.36;100143.94;5024471;28;20153;-68
2022/03/21 02:19:47;;;;;;;3.90;2.00;;;;;;;15.36;75.34;100147.75;5019617;28;20573;-68
2022/03/21 02:22:49;;;;;;;3.27;1.73;;;;;;;15.43;76.05;100150.94;5023400;28;20476;-69
2022/03/21 02:25:29;;;;;;;7.23;1.90;;;;;;;15.35;75.54;100134.81;5007063;28;20141;-69
2022/03/21 02:27:58;;;;;;;4.63;2.03;;;;;;;15.48;75.23;100149.94;5023119;28;20149;-69
2022/03/21 02:30:28;;;;;;;2.20;1.60;;;;;;;15.51;75.21;100143.69;5027693;28;20058;-68
2022/03/21 02:32:56;;;;;;;2.22;1.35;;;;;;;15.51;75.30;100147.31;5024978;28;20099;-70
2022/03/21 02:35:24;;;;;;;4.17;1.70;;;;;;;15.41;74.93;100134.34;5028316;28;20088;-70
2022/03/21 02:37:52;;;;;;;4.50;2.20;;;;;;;15.46;75.06;100153.09;5025177;28;20132;-70
2022/03/21 02:40:19;;;;;;;5.80;1.63;;;;;;;15.43;74.78;100152.94;5028132;28;20132;-69
2022/03/21 02:42:46;;;;;;;2.73;1.90;;;;;;;15.32;74.93;100139.13;5021855;28;20085;-70
2022/03/21 02:45:13;;;;;;;3.27;1.63;;;;;;;15.28;74.79;100126.88;5023433;28;20042;-68
2022/03/21 02:47:39;;;;;;;3.67;1.87;;;;;;;15.44;74.67;100151.75;5031181;28;20132;-69
2022/03/21 02:50:11;;;;;;;4.90;2.20;;;;;;;15.40;74.64;100146.78;5030564;28;20049;-69
2022/03/21 02:52:42;;;;;;;4.20;1.60;;;;;;;15.38;74.85;100137.00;5031965;28;20069;-69
2022/03/21 02:55:09;;;;;;;3.23;1.73;;;;;;;15.28;74.83;100132.50;5023648;28;20148;-69
2022/03/21 02:57:36;;;;;;;2.83;1.53;;;;;;;15.30;74.71;100132.16;5022913;28;20132;-70
2022/03/21 03:00:04;;;;;;;6.20;2.00;;;;;;;15.26;75.12;100151.66;5023951;28;20091;-70
2022/03/21 03:02:31;;;;;;;3.33;1.53;;;;;;;15.02;75.47;100134.31;5027283;28;20137;-68
2022/03/21 03:04:58;;;;;;;3.13;1.67;;;;;;;15.00;75.56;100129.00;5018733;28;20053;-68
2022/03/21 03:07:25;;;;;;;3.13;1.57;;;;;;;14.96;75.66;100121.53;5023927;28;20133;-69
2022/03/21 03:09:52;;;;;;;6.13;1.33;;;;;;;14.99;75.78;100143.38;5029495;28;20096;-69
2022/03/21 03:12:19;;;;;;;2.93;1.50;;;;;;;14.93;76.11;100132.25;5019223;28;20129;-69
2022/03/21 03:14:46;;;;;;;3.07;1.50;;;;;;;14.96;75.97;100152.47;5020380;28;20096;-69
2022/03/21 03:17:12;;;;;;;2.67;1.43;;;;;;;14.96;75.65;100150.47;5026464;28;20136;-69
2022/03/21 03:19:39;;;;;;;4.67;1.63;;;;;;;14.77;75.98;100136.63;5029735;28;20128;-70
2022/03/21 03:22:08;;;;;;;3.43;1.40;;;;;;;14.67;75.91;100139.69;5032051;28;20049;-70
2022/03/21 03:24:36;;;;;;;2.30;1.10;;;;;;;14.54;75.84;100120.88;5023387;28;20057;-70
2022/03/21 03:27:03;;;;;;;3.07;1.27;;;;;;;14.51;75.85;100125.16;5030344;28;20081;-70
2022/03/21 03:29:30;;;;;;;3.20;1.20;;;;;;;14.50;75.75;100129.13;5022471;28;20107;-70
2022/03/21 03:32:00;;;;;;;4.97;1.63;;;;;;;14.34;75.73;100099.69;5024208;28;20577;-70
2022/03/21 03:34:27;;;;;;;1.70;1.27;;;;;;;14.57;75.92;100154.81;5021201;28;20077;-71
2022/03/21 03:36:54;;;;;;;4.40;1.70;;;;;;;14.56;76.05;100155.91;5022592;28;20084;-70
2022/03/21 03:39:21;;;;;;;1.53;1.13;;;;;;;14.53;75.97;100155.72;5021157;28;20077;-67
2022/03/21 03:41:48;;;;;;;4.70;1.60;;;;;;;14.19;76.31;100104.50;5028135;28;20100;-67
2022/03/21 03:44:16;;;;;;;2.07;1.13;;;;;;;14.37;76.43;100139.22;5029403;28;20916;-68
2022/03/21 03:46:44;;;;;;;2.43;1.30;;;;;;;14.24;76.35;100123.22;5027007;28;20137;-67
2022/03/21 03:49:11;;;;;;;4.83;1.47;;;;;;;14.32;76.25;100139.31;5028160;28;20063;-67
2022/03/21 03:51:38;;;;;;;3.87;1.30;;;;;;;14.17;76.45;100120.00;5027989;28;20087;-67
2022/03/21 03:54:05;;;;;;;2.47;1.33;;;;;;;14.41;76.42;100143.03;5023219;28;20046;-67
2022/03/21 03:56:32;;;;;;;6.67;2.57;;;;;;;14.10;76.30;100094.34;5028995;28;20569;-67
2022/03/21 03:58:59;;;;;;;3.30;1.90;;;;;;;14.34;76.56;100133.41;5030514;28;20133;-68
2022/03/21 04:01:26;;;;;;;3.30;1.20;;;;;;;14.30;76.49;100130.38;5021298;28;20134;-68
2022/03/21 04:03:53;;;;;;;3.77;1.40;;;;;;;14.26;76.55;100134.97;5020550;28;20045;-68
2022/03/21 04:06:23;;;;;;;2.97;1.40;;;;;;;14.20;76.83;100125.00;5026461;28;20129;-69
2022/03/21 04:08:52;;;;;;;2.70;1.50;;;;;;;14.26;76.61;100140.59;5022780;28;20053;-70
2022/03/21 04:11:19;;;;;;;4.13;1.70;;;;;;;14.28;76.63;100134.66;5020868;28;20608;-70
2022/03/21 04:13:46;;;;;;;2.13;1.43;;;;;;;14.04;76.44;100115.25;5029650;28;20967;-69
2022/03/21 04:16:17;;;;;;;3.07;2.17;;;;;;;14.24;76.43;100142.88;5023468;28;20099;-70
2022/03/21 04:18:44;;;;;;;3.30;1.40;;;;;;;13.94;76.24;100105.06;5029053;28;20134;-70
2022/03/21 04:21:25;;;;;;;3.70;2.00;;;;;;;14.14;76.27;100148.72;5020902;28;20509;-69
2022/03/21 04:23:52;;;;;;;2.60;1.60;;;;;;;13.97;76.38;100127.72;5022192;28;20053;-69
2022/03/21 04:26:19;;;;;;;2.37;1.50;;;;;;;14.04;76.28;100132.09;5025244;28;20441;-69
2022/03/21 04:28:47;;;;;;;1.53;1.13;;;;;;;14.11;76.29;100146.53;5019237;28;20472;-71
2022/03/21 04:31:13;;;;;;;1.70;1.13;;;;;;;14.08;76.32;100127.50;5027709;28;20076;-71
2022/03/21 04:33:40;;;;;;;1.97;1.40;;;;;;;13.96;76.29;100095.19;5027758;28;20042;-71
2022/03/21 04:36:07;;;;;;;1.20;0.83;;;;;;;14.18;76.53;100135.72;5026721;28;20526;-70
2022/03/21 04:38:34;;;;;;;2.83;1.47;;;;;;;14.27;76.17;100147.88;5021685;28;20132;-71
2022/03/21 04:41:01;;;;;;;2.80;1.30;;;;;;;14.24;76.09;100137.25;5026695;28;20063;-71
2022/03/21 04:43:28;;;;;;;1.73;1.07;;;;;;;14.16;75.98;100143.63;5020089;28;20050;-70
2022/03/21 04:45:55;;;;;;;1.20;1.07;;;;;;;13.85;75.73;100078.91;5023118;28;20567;-70
2022/03/21 04:48:22;;;;;;;4.33;1.60;;;;;;;14.21;75.62;100146.31;5025910;28;20887;-70
2022/03/21 04:50:48;;;;;;;1.77;1.00;;;;;;;14.08;75.82;100124.69;5032734;28;20152;-70
2022/03/21 04:53:15;;;;;;;4.37;1.50;;;;;;;14.02;75.57;100117.53;5031674;28;20096;-69
2022/03/21 04:55:42;;;;;;;2.13;0.80;;;;;;;13.98;75.02;100129.41;5036444;28;20103;-70
2022/03/21 04:58:10;;;;;;;4.67;1.00;;;;;;;14.04;75.13;100144.16;5024507;28;20487;-69
2022/03/21 05:00:38;;;;;;;1.37;0.80;;;;;;;13.92;74.90;100136.28;5023294;28;20142;-71
2022/03/21 05:03:10;;;;;;;1.87;0.80;;;;;;;14.05;74.56;100159.03;5020413;28;20046;-69
2022/03/21 05:05:43;;;;;;;1.47;0.97;;;;;;;14.05;74.51;100156.22;5025953;28;20060;-70
2022/03/21 05:08:16;;;;;;;1.93;0.83;;;;;;;14.07;74.56;100166.00;5026203;28;20061;-68
2022/03/21 05:10:44;;;;;;;1.80;1.30;;;;;;;14.08;74.54;100164.84;5021138;28;20522;-69
2022/03/21 05:13:11;;;;;;;1.60;1.07;;;;;;;13.95;74.49;100152.50;5025398;28;20137;-70
2022/03/21 05:15:38;;;;;;;0.90;0.80;;;;;;;14.01;74.25;100172.03;5021359;28;20536;-69
2022/03/21 05:18:05;;;;;;;2.10;0.80;;;;;;;13.96;73.53;100173.81;5028242;28;20060;-69
2022/03/21 05:20:32;;;;;;;0.67;0.60;;;;;;;13.87;73.15;100156.00;5025449;28;20081;-68
2022/03/21 05:31:16;;;;;;;0.87;0.60;;;;;;;13.90;72.55;100177.84;5026382;28;20180;-71
2022/03/21 05:36:28;;;;;;;0.73;0.53;;;;;;;13.77;72.15;100166.63;5026514;28;20136;-67
2022/03/21 05:38:57;;;;;;;1.20;0.60;;;;;;;13.90;72.08;100177.03;5025797;28;20519;-68
2022/03/21 05:41:25;;;;;;;1.17;0.50;;;;;;;13.85;71.85;100168.72;5029120;28;20060;-69
2022/03/21 05:43:52;;;;;;;1.30;0.70;;;;;;;13.85;71.74;100158.31;5029072;28;20052;-69
2022/03/21 05:46:19;;;;;;;0.90;0.77;;;;;;;14.08;71.90;100195.72;5021851;28;20100;-69
2022/03/21 05:48:59;;;;;;;1.13;0.40;;;;;;;14.02;71.18;100190.53;5029398;28;20505;-70
2022/03/21 05:51:32;;;;;;;;;;;;;;;13.97;71.00;100197.91;5028165;28;20055;-69
2022/03/21 05:54:02;;;;;;;0.90;0.60;;;;;;;13.95;71.31;100183.38;5028652;28;19928;-69
2022/03/21 05:56:29;;;;;;;5.68;0.80;;;;;;;13.96;71.28;100172.97;5028272;28;20548;-69
2022/03/21 05:59:00;;;;;;;1.87;0.77;;;;;;;14.21;71.56;100205.28;5029194;28;20132;-70
2022/03/21 06:01:26;;;;;;;1.00;0.73;;;;;;;14.17;71.58;100199.47;5022868;28;20046;-70
2022/03/21 06:03:55;;;;;;;0.87;0.50;;;;;;;13.99;71.85;100147.91;5028751;28;20507;-70
2022/03/21 06:06:23;;;;;;;1.90;0.67;;;;;;;14.21;72.14;100180.84;5027365;28;20136;-71
2022/03/21 06:08:51;;;;;;;1.20;0.70;;;;;;;14.42;72.22;100212.13;5020392;28;20077;-68
2022/03/21 06:11:18;;;;;;;3.20;0.67;;;;;;;14.20;72.11;100182.00;5025200;28;20053;-69
2022/03/21 06:13:45;;;;;;;2.73;0.87;;;;;;;14.39;72.04;100206.31;5024407;28;20140;-69
2022/03/21 06:16:12;;;;;;;1.73;0.80;;;;;;;14.43;72.07;100205.38;5022844;28;20061;-69
2022/03/21 06:18:39;;;;;;;2.70;0.50;;;;;;;14.29;71.78;100184.91;5025015;28;20152;-68
2022/03/21 06:21:08;;;;;;;26.43;24.67;;;;;;;14.39;71.59;100207.16;5021083;28;20049;-68
2022/03/21 06:23:36;;;;;;;22.93;21.83;;;;;;;14.27;71.79;100186.38;5020894;28;20073;-70
2022/03/21 06:26:07;;;;;;;1.43;0.80;;;;;;;14.45;71.71;100203.06;5021376;28;20072;-68
2022/03/21 06:28:35;;;;;;;0.63;0.50;;;;;;;14.44;71.54;100211.81;5021246;28;20073;-67
2022/03/21 06:31:03;;;;;;;1.90;0.90;;;;;;;14.28;71.64;100199.25;5038613;28;20045;-68
2022/03/21 06:33:31;;;;;;;2.37;0.90;;;;;;;14.42;71.37;100223.34;5029687;28;20049;-68
2022/03/21 06:36:00;;;;;;;0.90;0.60;;;;;;;14.40;71.12;100217.25;5040085;28;20073;-68
2022/03/21 06:38:27;;;;;;;0.55;0.50;;;;;;;14.37;70.92;100220.69;5026026;28;22233;-68
2022/03/21 06:40:55;;;;;;;0.90;0.60;;;;;;;14.29;70.36;100217.75;5025708;28;20144;-67
2022/03/21 06:43:24;;;;;;;0.70;0.57;;;;;;;14.37;70.14;100229.09;5023071;28;20041;-68
2022/03/21 06:45:51;;;;;;;3.50;0.87;;;;;;;14.34;69.67;100238.16;5027759;28;20636;-69
2022/03/21 06:48:20;;;;;;;1.03;0.70;;;;;;;14.31;69.69;100238.78;5024810;28;20729;-68
2022/03/21 06:50:47;;;;;;;0.73;0.70;;;;;;;14.32;69.77;100229.19;5024360;28;20081;-69
2022/03/21 06:53:15;;;;;;;1.33;0.70;;;;;;;14.23;69.44;100214.25;5027644;28;20148;-68
2022/03/21 06:55:43;;;;;;;1.00;0.53;;;;;;;14.29;69.48;100224.22;5029860;28;20069;-68
2022/03/21 06:58:14;;;;;;;0.87;0.70;;;;;;;14.28;69.32;100216.94;5023577;28;20051;-68
2022/03/21 07:00:43;;;;;;;0.90;0.60;;;;;;;14.40;69.29;100242.53;5027731;28;20080;-69
2022/03/21 07:03:14;;;;;;;0.47;0.47;;;;;;;14.36;69.49;100237.84;5030870;28;20060;-69
2022/03/21 07:05:43;;;;;;;2.90;0.60;;;;;;;14.26;69.55;100222.06;5028402;28;20049;-69
2022/03/21 07:08:10;;;;;;;2.93;0.77;;;;;;;14.37;69.30;100243.16;5021067;28;20046;-68
2022/03/21 07:10:40;;;;;;;1.23;1.00;;;;;;;14.38;69.33;100250.41;5021614;28;20050;-69
2022/03/21 07:13:07;;;;;;;;;;;;;;;14.35;69.00;100255.84;5029345;28;20056;-69
2022/03/21 07:15:34;;;;;;;2.13;0.90;;;;;;;14.40;69.73;100245.34;5024447;28;19968;-68
2022/03/21 07:18:01;;;;;;;0.70;0.60;;;;;;;14.51;69.53;100248.78;5027304;28;20084;-68
2022/03/21 07:20:28;;;;;;;1.07;0.70;;;;;;;14.51;69.58;100254.41;5023113;28;20136;-68
2022/03/21 07:22:57;;;;;;;1.83;0.60;;;;;;;14.34;69.02;100221.31;5024787;28;20078;-69
2022/03/21 07:25:24;;;;;;;0.97;0.50;;;;;;;14.52;68.92;100258.03;5024688;28;20141;-69
2022/03/21 07:27:52;;;;;;;1.90;0.53;;;;;;;14.24;68.33;100221.50;5017043;28;20054;-67
2022/03/21 07:30:19;;;;;;;1.13;0.50;;;;;;;14.53;68.18;100262.50;5023561;28;20443;-68
2022/03/21 07:32:46;;;;;;;1.83;1.00;;;;;;;14.51;68.14;100247.97;5024808;28;20136;-67
2022/03/21 07:35:14;;;;;;;2.23;0.87;;;;;;;14.59;67.96;100261.25;5023033;28;20046;-69
2022/03/21 07:37:46;;;;;;;1.80;0.80;;;;;;;14.50;67.74;100247.13;5023503;28;20109;-67
2022/03/21 07:40:14;;;;;;;2.40;1.00;;;;;;;14.45;67.31;100228.34;5023940;28;20057;-68
2022/03/21 07:42:43;;;;;;;1.03;0.93;;;;;;;14.72;67.14;100266.03;5024148;28;20053;-68
2022/03/21 07:47:58;;;;;;;3.53;1.57;;;;;;;14.76;66.71;100269.03;5019544;28;20088;-68
2022/03/21 07:50:26;;;;;;;2.97;1.13;;;;;;;14.89;67.02;100271.81;5029945;28;20944;-77
2022/03/21 07:52:55;;;;;;;1.67;0.70;;;;;;;15.02;66.79;100272.91;5025150;28;20056;-78
2022/03/21 07:55:22;;;;;;;2.17;0.83;;;;;;;14.93;66.68;100255.97;5023321;28;20073;-69
2022/03/21 07:57:49;;;;;;;2.07;0.97;;;;;;;15.15;66.13;100296.53;5026286;28;20136;-68
2022/03/21 08:00:16;;;;;;;2.07;0.90;;;;;;;15.00;66.20;100271.56;5025408;28;20460;-68
2022/03/21 08:02:43;;;;;;;0.87;0.80;;;;;;;15.17;65.33;100299.84;5026987;28;20132;-68
2022/03/21 08:05:11;;;;;;;1.10;0.93;;;;;;;15.13;65.23;100281.94;5029458;28;20439;-71
2022/03/21 08:07:38;;;;;;;1.10;0.70;;;;;;;15.31;65.23;100299.78;5033345;28;20484;-68
2022/03/21 08:10:06;;;;;;;2.83;0.73;;;;;;;15.41;64.92;100300.38;5032243;28;20133;-69
2022/03/21 08:12:38;;;;;;;0.90;0.77;;;;;;;15.57;64.59;100297.19;5027193;28;20041;-68
2022/03/21 08:15:06;;;;;;;0.90;0.77;;;;;;;15.83;64.65;100311.47;5031341;28;20136;-69
2022/03/21 08:17:57;;;;;;;1.40;0.67;;;;;;;15.87;64.42;100302.06;5029012;28;20164;-69
2022/03/21 08:20:35;;;;;;;1.10;0.90;;;;;;;15.99;63.44;100309.91;5024025;28;20505;-69
2022/03/21 08:23:11;;;;;;;1.40;0.83;;;;;;;15.99;63.30;100303.44;5018015;28;20046;-68
2022/03/21 08:25:40;;;;;;;3.17;1.40;;;;;;;16.02;63.35;100280.25;5023101;28;20072;-68
2022/03/21 08:28:09;;;;;;;2.33;1.27;;;;;;;16.41;62.75;100315.22;5025257;28;20139;-69
2022/03/21 08:30:37;;;;;;;2.20;1.10;;;;;;;16.52;62.26;100302.53;5017266;28;20073;-66
2022/03/21 08:33:06;;;;;;;2.03;1.20;;;;;;;16.67;61.58;100320.97;5019956;28;20049;-66
2022/03/21 08:35:38;;;;;;;1.37;1.27;;;;;;;16.57;61.24;100302.34;5021229;28;20053;-66
2022/03/21 08:38:07;;;;;;;1.45;0.73;;;;;;;16.62;60.50;100296.59;5020663;28;20072;-66
2022/03/21 08:40:36;;;;;;;0.32;0.32;;;;;;;16.91;60.48;100329.84;5021741;28;20140;-66
2022/03/21 08:43:04;;;;;;;1.35;0.90;;;;;;;16.99;59.13;100331.88;5021885;28;20049;-66
2022/03/21 08:45:33;;;;;;;2.10;1.25;;;;;;;17.09;58.91;100319.41;5026307;28;20085;-66
2022/03/21 08:48:00;;;;;;;2.85;1.08;;;;;;;17.49;57.87;100328.56;5026228;28;20467;-66
2022/03/21 08:50:27;;;;;;;3.33;0.98;;;;;;;17.91;56.94;100333.69;5027099;28;20279;-66
2022/03/21 08:52:56;;;;;;;2.03;0.80;;;;;;;18.00;54.46;100311.91;5020630;28;20041;-66
2022/03/21 08:55:23;;;;;;;1.17;0.50;;;;;;;18.36;53.92;100305.81;5022086;28;20480;-66
2022/03/21 08:57:51;;;;;;;0.93;0.75;;;;;;;18.61;52.38;100318.16;5018082;28;20559;-66
2022/03/21 09:00:18;;;;;;;1.27;1.15;;;;;;;19.21;51.66;100313.31;5027976;28;20085;-66
2022/03/21 09:02:48;;;;;;;0.98;0.90;;;;;;;20.06;50.97;100326.22;5022896;28;20089;-66
2022/03/21 09:05:16;;;;;;;2.60;1.33;;;;;;;20.15;49.11;100318.47;5023137;28;20046;-67
2022/03/21 09:07:43;;;;;;;1.88;1.05;;;;;;;20.47;49.20;100316.72;5023760;28;20053;-66
2022/03/21 09:10:12;;;;;;;2.28;1.13;;;;;;;20.96;48.97;100307.44;5027899;28;20128;-66
2022/03/21 09:12:42;;;;;;;1.20;0.75;;;;;;;21.35;47.19;100331.41;5026594;28;20049;-66
2022/03/21 09:15:09;;;;;;;2.30;0.90;;;;;;;21.66;47.57;100293.75;5018666;28;20116;-66
2022/03/21 09:17:38;;;;;;;4.78;1.20;;;;;;;22.55;47.15;100337.25;5022745;28;20052;-65
2022/03/21 09:20:06;;;;;;;2.38;1.33;;;;;;;22.67;45.34;100328.63;5022455;28;20139;-66
2022/03/21 09:22:34;;;;;;;1.15;0.80;;;;;;;22.65;44.52;100334.66;5026005;28;20045;-66
2022/03/21 09:25:01;;;;;;;3.92;1.67;;;;;;;23.12;44.13;100335.84;5022440;28;20096;-66
2022/03/21 09:27:28;;;;;;;2.72;1.38;;;;;;;23.83;43.98;100322.38;5023345;28;20416;-66
2022/03/21 09:29:55;;;;;;;1.50;1.15;;;;;;;24.15;44.04;100280.19;5021931;28;20124;-66
2022/03/21 09:32:22;;;;;;;3.35;1.52;;;;;;;24.65;41.31;100335.34;5020626;28;20080;-66
2022/03/21 09:34:49;;;;;;;1.83;0.95;;;;;;;24.19;39.78;100318.16;5025593;28;20452;-66
2022/03/21 09:37:16;;;;;;;3.28;2.00;;;;;;;24.01;39.78;100334.13;5023864;28;20136;-66
2022/03/21 09:39:43;;;;;;;4.35;2.15;;;;;;;24.53;40.63;100333.50;5032177;28;20132;-66
2022/03/21 09:42:10;;;;;;;3.35;1.77;;;;;;;24.96;39.52;100342.00;5026975;28;20386;-66
2022/03/21 09:44:37;;;;;;;5.22;2.05;;;;;;;25.22;39.34;100330.56;5024295;28;20136;-66
2022/03/21 09:49:53;;;;;;;3.88;2.08;;;;;;;23.62;37.61;100312.13;5026106;28;20049;-66
2022/03/21 09:52:22;;;;;;;2.63;1.83;;;;;;;23.18;37.45;100325.81;5025900;28;20140;-65
2022/03/21 09:54:50;;;;;;;9.52;8.82;;;;;;;22.78;36.73;100334.56;5024609;28;20076;-65
2022/03/21 09:57:18;;;;;;;12.43;11.43;;;;;;;22.56;36.81;100304.72;5022334;28;20060;-65
2022/03/21 09:59:45;;;;;;;9.85;9.23;;;;;;;22.63;37.35;100310.59;5028577;28;20091;-65
2022/03/21 10:02:18;;;;;;;13.13;12.32;;;;;;;22.26;36.90;100321.41;5021983;28;20061;-65
2022/03/21 10:04:46;;;;;;;9.48;8.85;;;;;;;22.19;37.32;100308.69;5027131;28;20413;-66
2022/03/21 10:07:15;;;;;;;9.43;8.77;;;;;;;23.12;37.67;100315.91;5030094;28;20050;-66
2022/03/21 10:10:02;;;;;;;1.35;1.05;;;;;;;23.64;36.54;100326.81;5025238;28;20054;-65
2022/03/21 10:12:35;;;;;;;4.95;1.50;;;;;;;23.50;37.18;100322.84;5028453;28;20053;-66
2022/03/21 10:15:07;;;;;;;3.05;1.67;;;;;;;23.56;36.31;100319.34;5025961;28;20405;-66
2022/03/21 10:17:34;;;;;;;2.80;1.30;;;;;;;23.65;36.46;100316.25;5022697;28;20054;-65
2022/03/21 10:20:01;;;;;;;5.93;1.90;;;;;;;23.82;35.40;100300.75;5026438;28;20141;-65
2022/03/21 10:22:34;;;;;;;1.17;1.08;;;;;;;23.40;35.32;100321.41;5028987;28;20145;-66
2022/03/21 10:25:06;;;;;;;1.63;1.00;;;;;;;23.32;35.47;100313.91;5031331;28;20561;-64
2022/03/21 10:27:36;;;;;;;3.00;1.27;;;;;;;23.76;35.50;100300.25;5025006;28;20457;-66
2022/03/21 10:30:04;;;;;;;;;;;;;;;24.38;36.24;100322.19;5026696;28;20076;-65
2022/03/21 10:32:42;;;;;;;2.67;1.42;;;;;;;25.00;35.28;100329.41;5027948;28;20035;-65
2022/03/21 10:35:16;;;;;;;2.70;1.33;;;;;;;24.54;33.02;100318.00;5038530;28;20091;-65
2022/03/21 10:37:50;;;;;;;5.30;1.27;;;;;;;24.53;33.36;100324.13;5022069;28;20057;-65
2022/03/21 10:40:44;;;;;;;1.30;0.82;;;;;;;24.59;33.77;100325.44;5024022;28;20075;-66
2022/03/21 10:43:14;;;;;;;2.38;1.50;;;;;;;24.40;33.47;100334.03;5025775;28;20080;-65
2022/03/21 10:45:46;;;;;;;2.10;1.38;;;;;;;24.24;33.58;100315.03;5028385;28;20157;-66
2022/03/21 10:48:16;;;;;;;2.70;1.58;;;;;;;24.58;33.52;100312.38;5026250;28;20052;-66
2022/03/21 10:50:46;;;;;;;1.90;1.30;;;;;;;24.47;33.18;100294.25;5022984;28;20087;-65
2022/03/21 10:53:22;;;;;;;1.77;1.40;;;;;;;24.67;33.13;100323.53;5024037;28;20054;-65
2022/03/21 10:56:01;;;;;;;2.47;1.40;;;;;;;24.52;33.27;100316.78;5030177;28;20095;-64
2022/03/21 10:58:39;;;;;;;4.35;1.17;;;;;;;23.93;33.02;100309.50;5026364;28;20084;-65
2022/03/21 11:01:16;;;;;;;1.75;1.20;;;;;;;23.74;33.89;100314.03;5029433;28;20141;-66
2022/03/21 11:03:51;;;;;;;1.08;0.80;;;;;;;23.77;33.85;100306.75;5023098;28;20774;-65
2022/03/21 11:06:19;;;;;;;2.38;1.38;;;;;;;23.94;34.29;100299.75;5026796;28;20523;-66
2022/03/21 11:08:50;;;;;;;1.83;1.33;;;;;;;23.54;33.25;100300.94;5012067;28;20107;-65
2022/03/21 11:11:18;;;;;;;1.48;1.27;;;;;;;23.68;33.24;100295.56;5024547;28;20088;-66
2022/03/21 11:13:50;;;;;;;2.85;1.48;;;;;;;23.63;33.64;100301.56;5026982;28;20100;-65
2022/03/21 11:16:18;;;;;;;2.33;1.00;;;;;;;23.98;32.93;100306.34;5018593;28;20461;-66
2022/03/21 11:18:47;;;;;;;1.77;0.98;;;;;;;24.14;32.67;100281.41;5023527;28;20046;-65
2022/03/21 11:21:18;;;;;;;3.83;1.20;;;;;;;24.41;32.33;100310.03;5022695;28;20045;-66
2022/03/21 11:23:46;;;;;;;2.15;1.23;;;;;;;24.74;32.56;100287.34;5023499;28;20505;-65
2022/03/21 11:26:18;;;;;;;1.85;1.42;;;;;;;25.20;31.66;100301.56;5022858;28;20057;-65
2022/03/21 11:29:00;;;;;;;2.42;1.27;;;;;;;25.44;31.17;100300.25;5023219;28;20103;-66
2022/03/21 11:31:46;;;;;;;2.20;1.60;;;;;;;26.00;31.03;100309.97;5017929;28;20160;-66
2022/03/21 11:34:18;;;;;;;5.97;1.30;;;;;;;25.90;30.38;100302.91;5023411;28;20050;-66
2022/03/21 11:36:56;;;;;;;7.00;1.30;;;;;;;25.90;30.34;100296.34;5026779;28;20088;-66
2022/03/21 11:39:24;;;;;;;4.30;2.53;;;;;;;26.49;29.92;100294.53;5025100;28;20089;-65
2022/03/21 11:42:00;;;;;;;4.30;1.25;;;;;;;27.08;30.03;100295.41;5027108;28;20132;-65
2022/03/21 11:44:27;;;;;;;3.88;2.42;;;;;;;26.60;29.67;100306.94;5027134;28;20053;-65
2022/03/21 11:47:20;;;;;;;3.53;1.30;;;;;;;26.34;29.76;100293.56;5025717;28;20128;-65
2022/03/21 11:49:47;;;;;;;1.52;1.20;;;;;;;26.84;29.70;100284.59;5025812;28;20531;-66
2022/03/21 11:52:14;;;;;;;2.55;1.45;;;;;;;27.05;28.84;100255.28;5027600;28;20091;-65
2022/03/21 11:54:42;;;;;;;1.85;1.65;;;;;;;27.83;28.71;100270.03;5030428;28;20500;-65